Flight Track Log - Related Links

Times and Time Zones

All times are in EDT time to prevent confusion due to time zone crossing. See the UAL70 flight status page for this flight to view local times or setup timezone preferences in your user account.

Time Position Orientation Groundspeed Altitude Reporting Facility
EDT Latitude Longitude Course Direction KTS MPH feet Rate Location/Type
Tue 06:09:35 PM 40.6817 -74.1713 205° Southwest 145 167 100  Level FlightAware ADS-B
Tue 06:09:54 PM 40.6683 -74.1796 205° Southwest 166 191 1,000 2,889 Climbing FlightAware ADS-B
Tue 06:10:02 PM 40.6624 -74.1812 192° South 167 192 1,400 1,895 Climbing FlightAware ADS-B
Tue 06:10:13 PM 40.6535 -74.1812 180° South 184 212 1,600 1,263 Climbing FlightAware ADS-B
Tue 06:10:21 PM 40.6465 -74.1806 176° South 193 222 1,800 1,636 Climbing FlightAware ADS-B
Tue 06:10:24 PM 40.6432 -74.1806 180° South 195 224 1,900 1,500 Climbing FlightAware ADS-B
Tue 06:10:57 PM 40.6212 -74.2053 220° Southwest 215 247 2,700 1,571 Climbing FlightAware ADS-B
Tue 06:11:06 PM 40.6209 -74.2168 268° West 219 252 3,000 2,143 Climbing FlightAware ADS-B
Tue 06:11:11 PM 40.6221 -74.2235 283° West 220 253 3,200 2,087 Climbing FlightAware ADS-B
Tue 06:11:29 PM 40.6334 -74.2436 307° West 238 274 3,800 2,348 Climbing FlightAware ADS-B
Tue 06:11:34 PM 40.6381 -74.2472 330° Northwest 237 273 4,100 3,273 Climbing FlightAware ADS-B
Tue 06:12:02 PM 40.6676 -74.2446 North 236 272 5,600 2,914 Climbing FlightAware ADS-B
Tue 06:12:09 PM 40.6746 -74.2400 26° Northeast 246 283 5,800 2,182 Climbing FlightAware ADS-B
Tue 06:12:24 PM 40.6899 -74.2286 29° Northeast 250 288 6,400 2,100 Climbing FlightAware ADS-B
Tue 06:12:29 PM 40.6947 -74.2250 30° Northeast 261 300 6,500 1,500 Climbing FlightAware ADS-B
Tue 06:12:40 PM 40.7071 -74.2156 30° Northeast 274 315 6,800 2,160 Climbing FlightAware ADS-B
Tue 06:12:54 PM 40.7220 -74.2044 30° Northeast 279 321 7,400 2,625 Climbing FlightAware ADS-B
Tue 06:12:56 PM 40.7249 -74.2023 29° Northeast 279 321 7,500 2,400 Climbing FlightAware ADS-B
Tue 06:13:04 PM 40.7342 -74.1951 30° Northeast 284 327 7,800 2,182 Climbing FlightAware ADS-B
Tue 06:13:07 PM 40.7375 -74.1922 34° Northeast 287 330 7,900 1,800 Climbing FlightAware ADS-B
Tue 06:13:14 PM 40.7440 -74.1845 42° Northeast 292 336 8,100 2,250 Climbing FlightAware ADS-B
Tue 06:13:15 PM 40.7450 -74.1828 52° Northeast 294 338 8,200 2,400 Climbing FlightAware ADS-B
Tue 06:13:19 PM 40.7480 -74.1780 50° Northeast 296 341 8,300 2,182 Climbing FlightAware ADS-B
Tue 06:13:26 PM 40.7531 -74.1656 61° Northeast 298 343 8,600 2,667 Climbing FlightAware ADS-B
Tue 06:13:28 PM 40.7541 -74.1631 62° Northeast 299 344 8,700 2,400 Climbing FlightAware ADS-B
Tue 06:13:36 PM 40.7582 -74.1502 67° East 302 348 9,000 2,727 Climbing FlightAware ADS-B
Tue 06:13:39 PM 40.7601 -74.1440 68° East 305 351 9,200 2,143 Climbing FlightAware ADS-B
Tue 06:13:50 PM 40.7655 -74.1243 70° East 309 356 9,500 1,800 Climbing FlightAware ADS-B
Tue 06:13:59 PM 40.7698 -74.1082 71° East 313 360 9,800 1,500 Climbing FlightAware ADS-B
Tue 06:14:10 PM 40.7742 -74.0887 73° East 323 372 10,000 444 Climbing FlightAware ADS-B
Tue 06:14:26 PM 40.7824 -74.0580 71° East 347 399 10,000  Level FlightAware ADS-B
Tue 06:14:27 PM 40.7831 -74.0561 64° Northeast 349 402 10,000  Level FlightAware ADS-B
Tue 06:14:32 PM 40.7866 -74.0465 64° Northeast 350 403 10,000  Level FlightAware ADS-B
Tue 06:14:45 PM 40.7970 -74.0224 60° Northeast 346 398 10,000 686 Level FlightAware ADS-B
Tue 06:15:07 PM 40.8183 -73.9863 52° Northeast 329 379 10,400 1,000 Climbing FlightAware ADS-B
Tue 06:15:15 PM 40.8262 -73.9737 50° Northeast 317 365 10,500 1,161 Climbing FlightAware ADS-B
Tue 06:15:38 PM 40.8479 -73.9404 49° Northeast 312 359 11,000 1,241 Climbing FlightAware ADS-B
Tue 06:15:44 PM 40.8537 -73.9313 50° Northeast 313 360 11,100 857 Climbing FlightAware ADS-B
Tue 06:15:52 PM 40.8600 -73.9198 54° Northeast 319 367 11,200 1,200 Climbing FlightAware ADS-B
Tue 06:15:54 PM 40.8612 -73.9167 63° Northeast 321 369 11,300 2,400 Climbing FlightAware ADS-B
Tue 06:16:02 PM 40.8662 -73.9011 67° East 325 374 11,600 2,400 Climbing FlightAware ADS-B
Tue 06:16:34 PM 40.8763 -73.8381 78° East 336 387 12,900 2,286 Climbing FlightAware ADS-B
Tue 06:16:44 PM 40.8801 -73.8180 76° East 339 390 13,200 2,143 Climbing FlightAware ADS-B
Tue 06:17:02 PM 40.8914 -73.7835 67° East 341 392 13,900 1,667 Climbing FlightAware ADS-B
Tue 06:17:38 PM 40.9284 -73.7260 50° Northeast 361 415 14,700 1,183 Climbing FlightAware ADS-B
Tue 06:18:13 PM 40.9700 -73.6710 45° Northeast 392 451 15,300 1,105 Climbing FlightAware ADS-B
Tue 06:18:16 PM 40.9763 -73.6632 43° Northeast 395 455 15,400 2,364 Climbing FlightAware ADS-B
Tue 06:18:46 PM 41.0161 -73.6106 45° Northeast 402 463 16,600 2,419 Climbing FlightAware ADS-B
Tue 06:19:18 PM 41.0567 -73.5540 46° Northeast 406 467 17,900 2,382 Climbing FlightAware ADS-B
Tue 06:19:54 PM 41.1007 -73.4840 50° Northeast 413 475 19,300 1,980 Climbing FlightAware ADS-B
Tue 06:20:58 PM 41.1730 -73.3570 53° Northeast 427 491 21,200 1,800 Climbing FlightAware ADS-B
Tue 06:21:04 PM 41.1826 -73.3403 53° Northeast 420 483 21,400 1,629 Climbing FlightAware ADS-B
Tue 06:24:28 PM 41.4080 -72.8700 57° Northeast 472 543 26,900 1,377 Climbing FlightAware ADS-B
Tue 06:25:08 PM 41.4390 -72.7780 66° East 472 543 27,000 75 Climbing FlightAware ADS-B
Tue 06:25:48 PM 41.4690 -72.6880 66° East 472 543 27,000  Level FlightAware ADS-B
Tue 06:26:28 PM 41.4990 -72.5970 66° East 472 543 27,000 2,333 Level FlightAware ADS-B
Tue 06:27:18 PM 41.5610 -72.4300 64° Northeast 492 566 30,500 3,000 Climbing FlightAware ADS-B
Tue 06:27:58 PM 41.5990 -72.3100 67° East 494 568 31,500 1,500 Climbing FlightAware ADS-B
Tue 06:28:38 PM 41.6340 -72.1990 67° East 490 564 32,500 1,059 Climbing FlightAware ADS-B
Tue 06:29:23 PM 41.6730 -72.0770 67° East 491 565 33,000 353 Climbing FlightAware ADS-B
Tue 06:30:03 PM 41.7100 -71.9620 67° East 489 563 33,000  Level FlightAware ADS-B
Tue 06:30:48 PM 41.7490 -71.8380 67° East 486 559 33,000  Level FlightAware ADS-B
Tue 06:31:28 PM 41.7840 -71.7250 67° East 484 557 33,000  Level FlightAware ADS-B
Tue 06:32:08 PM 41.8180 -71.6180 67° East 483 556 33,000  Level FlightAware ADS-B
Tue 06:32:53 PM 41.8580 -71.4900 67° East 481 554 33,000  Level FlightAware ADS-B
Tue 06:33:33 PM 41.8910 -71.3830 67° East 479 551 33,000  Level FlightAware ADS-B
Tue 06:34:08 PM 41.9210 -71.2860 67° East 478 550 33,000  Level FlightAware ADS-B
Tue 06:34:48 PM 41.9540 -71.1790 67° East 478 550 33,000  Level FlightAware ADS-B
Tue 06:35:33 PM 41.9930 -71.0540 67° East 478 550 33,000  Level FlightAware ADS-B
Tue 06:36:13 PM 42.0270 -70.9430 68° East 478 550 33,000  Level FlightAware ADS-B
Tue 06:36:58 PM 42.0650 -70.8190 68° East 480 552 33,000  Level FlightAware ADS-B
Tue 06:37:38 PM 42.0980 -70.7080 68° East 481 554 33,000  Level FlightAware ADS-B
Tue 06:38:18 PM 42.1310 -70.6010 67° East 482 555 33,000  Level FlightAware ADS-B
Tue 06:39:03 PM 42.1690 -70.4740 68° East 484 557 33,000  Level FlightAware ADS-B
Tue 06:39:43 PM 42.2020 -70.3640 68° East 484 557 33,000  Level FlightAware ADS-B
Tue 06:40:28 PM 42.2410 -70.2350 68° East 484 557 33,000  Level FlightAware ADS-B
Tue 06:41:08 PM 42.2730 -70.1240 69° East 484 557 33,000  Level FlightAware ADS-B
Tue 06:41:48 PM 42.3080 -70.0070 68° East 484 557 33,000  Level FlightAware ADS-B
Tue 06:42:33 PM 42.3450 -69.8830 68° East 483 556 33,000  Level FlightAware ADS-B
Tue 06:43:13 PM 42.3780 -69.7680 69° East 483 556 33,000  Level FlightAware ADS-B
Tue 06:43:58 PM 42.4150 -69.6430 68° East 482 555 33,000  Level FlightAware ADS-B
Tue 06:45:18 PM 42.4790 -69.4200 69° East 475 547 33,000  Level FlightAware ADS-B
Tue 06:45:58 PM 42.5080 -69.3210 68° East 475 547 33,000  Level FlightAware ADS-B
Tue 06:46:58 PM 42.5600 -69.1400 69° East 477 549 33,000  Level FlightAware ADS-B
Tue 06:47:38 PM 42.5930 -69.0240 69° East 479 551 33,000  Level FlightAware ADS-B
Tue 06:48:23 PM 42.6270 -68.9040 69° East 480 552 33,000  Level FlightAware ADS-B
Tue 06:49:03 PM 42.6600 -68.7890 69° East 481 554 33,000  Level FlightAware ADS-B
Tue 06:49:48 PM 42.6910 -68.6770 69° East 480 552 33,000  Level FlightAware ADS-B
Tue 06:50:28 PM 42.7160 -68.5800 71° East 480 552 33,000  Level FlightAware ADS-B
Tue 06:51:08 PM 42.7420 -68.4840 70° East 480 552 33,000 525 Level FlightAware ADS-B
Tue 06:51:48 PM 42.7880 -68.3270 68° East 479 551 33,700 1,412 Climbing FlightAware ADS-B
Tue 06:52:33 PM 42.8250 -68.1960 69° East 469 540 35,000 918 Climbing FlightAware ADS-B
Tue 06:53:13 PM 42.8560 -68.0840 69° East 453 521 35,000  Level FlightAware ADS-B
Tue 06:53:58 PM 42.8890 -67.9650 69° East 459 528 35,000  Level FlightAware ADS-B
Tue 06:54:43 PM 42.9220 -67.8430 70° East 463 533 35,000  Level FlightAware ADS-B
Tue 06:55:18 PM 42.9460 -67.7560 69° East 464 534 35,000  Level FlightAware ADS-B
Tue 06:56:48 PM 43.0140 -67.5030 70° East 477 549 35,000  Level FlightAware ADS-B
Tue 06:57:58 PM 43.0670 -67.3050 70° East 479 551 35,000  Level FlightAware ADS-B
Tue 06:59:08 PM 43.1200 -67.1020 70° East 480 552 35,000  Level FlightAware ADS-B
Tue 07:00:13 PM 43.1690 -66.9310 69° East 474 545 35,000  Level FlightAware ADS-B
Tue 07:01:38 PM 43.2460 -66.6930 66° East 461 531 35,000  Level FlightAware ADS-B
Tue 07:02:48 PM 43.3060 -66.5080 66° East 456 525 35,000  Level FlightAware ADS-B
Tue 07:03:58 PM 43.3670 -66.3180 66° East 454 522 35,000  Level FlightAware ADS-B
Tue 07:05:08 PM 43.4260 -66.1310 66° East 452 520 35,000  Level FlightAware ADS-B
Tue 07:06:23 PM 43.4870 -65.9380 66° East 445 512 35,000  Level FlightAware ADS-B
Tue 07:07:33 PM 43.5440 -65.7560 67° East 443 510 35,000  Level FlightAware ADS-B
Tue 07:08:43 PM 43.6000 -65.5750 67° East 440 506 35,000  Level FlightAware ADS-B
Tue 07:10:08 PM 43.6690 -65.3520 67° East 442 509 35,000  Level FlightAware ADS-B
Tue 07:11:18 PM 43.7250 -65.1690 67° East 443 510 35,000  Level FlightAware ADS-B
Tue 07:12:28 PM 43.7810 -64.9830 67° East 445 512 35,000  Level FlightAware ADS-B
Tue 07:13:38 PM 43.8370 -64.7970 67° East 446 513 35,000  Level FlightAware ADS-B
Tue 07:15:03 PM 43.9040 -64.5730 67° East 447 514 35,000  Level FlightAware ADS-B
Tue 07:16:08 PM 43.9550 -64.4000 68° East 446 513 35,000  Level FlightAware ADS-B
Tue 07:16:53 PM 43.9870 -64.2900 68° East 446 513 35,000  Level FlightAware ADS-B
Tue 07:17:33 PM 44.0130 -64.1990 68° East 446 513 35,000  Level FlightAware ADS-B
Tue 07:18:13 PM 44.0390 -64.1090 68° East 446 513 35,000  Level FlightAware ADS-B
Tue 07:18:53 PM 44.0660 -64.0180 68° East 446 513 35,000  Level FlightAware ADS-B
Tue 07:19:43 PM 44.0980 -63.9050 68° East 446 513 35,000  Level FlightAware ADS-B
Tue 07:20:33 PM 44.1600 -63.6910 68° East 446 513 35,000  Level FlightAware ADS-B
Tue 07:21:13 PM 44.1910 -63.5820 68° East 446 513 35,000  Level FlightAware ADS-B
Tue 07:22:13 PM 44.2280 -63.4500 69° East 444 511 35,000  Level FlightAware ADS-B
Tue 07:23:08 PM 44.2770 -63.2790 68° East 448 516 35,000  Level FlightAware ADS-B
Tue 07:24:08 PM 44.3250 -63.1100 68° East 449 517 35,000  Level FlightAware ADS-B
Tue 07:24:48 PM 44.3530 -63.0080 69° East 450 518 35,000  Level FlightAware ADS-B
Tue 07:25:28 PM 44.3780 -62.9150 69° East 450 518 35,000  Level FlightAware ADS-B
Tue 07:26:08 PM 44.4030 -62.8230 69° East 450 518 35,000  Level FlightAware ADS-B
Tue 07:26:48 PM 44.4290 -62.7300 69° East 450 518 35,000  Level FlightAware ADS-B
Tue 07:27:38 PM 44.4600 -62.6150 69° East 450 518 35,000  Level FlightAware ADS-B
Tue 07:28:18 PM 44.4860 -62.5220 69° East 450 518 35,000  Level FlightAware ADS-B
Tue 07:28:58 PM 44.5110 -62.4290 69° East 450 518 35,000  Level FlightAware ADS-B
Tue 07:29:38 PM 44.5360 -62.3370 69° East 450 518 35,000  Level FlightAware ADS-B
Tue 07:30:18 PM 44.5620 -62.2440 69° East 450 518 35,000  Level FlightAware ADS-B
Tue 07:31:08 PM 44.5930 -62.1280 69° East 450 518 35,000  Level FlightAware ADS-B
Tue 07:31:48 PM 44.6190 -62.0350 69° East 450 518 35,000  Level FlightAware ADS-B
Tue 07:32:28 PM 44.6440 -61.9420 69° East 450 518 35,000  Level FlightAware ADS-B
Tue 07:33:08 PM 44.6690 -61.8490 69° East 450 518 35,000  Level FlightAware ADS-B
Tue 07:33:48 PM 44.6950 -61.7560 69° East 450 518 35,000  Level FlightAware ADS-B
Tue 07:34:11 PM 44.7833 -61.3500 69° East 490 564 35,000  Level Gander Center
Tue 07:34:54 PM 44.8167 -61.2167 71° East 490 564 35,000  Level Moncton Center
Tue 07:35:54 PM 44.8500 -61.0500 74° East 490 564 35,000  Level Moncton Center
Tue 07:36:20 PM 44.8833 -60.9833 55° Northeast 490 564 35,000  Level Gander Center
Tue 07:42:13 PM 45.1440 -59.9480 55° Northeast 503 579 35,000  Level FlightAware ADS-B
Tue 07:43:03 PM 45.1820 -59.7920 71° East 503 579 35,000  Level FlightAware ADS-B
Tue 07:43:43 PM 45.2140 -59.6580 71° East 502 578 35,000  Level FlightAware ADS-B
Tue 07:44:23 PM 45.2390 -59.5520 71° East 503 579 35,000  Level FlightAware ADS-B
Tue 07:45:03 PM 45.2710 -59.4180 71° East 502 578 35,000  Level FlightAware ADS-B
Tue 07:45:48 PM 45.3040 -59.2750 72° East 502 578 35,000  Level FlightAware ADS-B
Tue 07:46:28 PM 45.3300 -59.1640 72° East 500 575 35,000  Level FlightAware ADS-B
Tue 07:47:03 PM 45.3560 -59.0500 72° East 500 575 35,000  Level FlightAware ADS-B
Tue 07:48:08 PM 45.4060 -58.8360 72° East 499 574 35,000  Level FlightAware ADS-B
Tue 07:48:48 PM 45.4340 -58.7110 72° East 499 574 35,000  Level FlightAware ADS-B
Tue 07:49:28 PM 45.4620 -58.5910 72° East 499 574 35,000  Level FlightAware ADS-B
Tue 07:50:13 PM 45.4890 -58.4690 72° East 499 574 35,000  Level FlightAware ADS-B
Tue 07:50:53 PM 45.5140 -58.3620 72° East 499 574 35,000  Level FlightAware ADS-B
Tue 07:51:33 PM 45.5380 -58.2560 72° East 499 574 35,000  Level FlightAware ADS-B
Tue 07:52:13 PM 45.5620 -58.1490 72° East 499 574 35,000  Level FlightAware ADS-B
Tue 07:53:03 PM 45.5930 -58.0160 72° East 499 574 35,000  Level FlightAware ADS-B
Tue 07:53:43 PM 45.6170 -57.9090 72° East 499 574 35,000  Level FlightAware ADS-B
Tue 07:54:23 PM 45.6410 -57.8020 72° East 499 574 35,000  Level FlightAware ADS-B
Tue 07:55:03 PM 45.6650 -57.6950 72° East 499 574 35,000  Level FlightAware ADS-B
Tue 07:55:43 PM 45.6900 -57.5890 71° East 499 574 35,000  Level FlightAware ADS-B
Tue 07:56:33 PM 45.7200 -57.4550 72° East 499 574 35,000  Level FlightAware ADS-B
Tue 07:57:13 PM 45.7440 -57.3480 72° East 499 574 35,000  Level FlightAware ADS-B
Tue 07:57:53 PM 45.8170 -56.9640 75° East 488 562 35,000  Level FlightAware ADS-B
Tue 07:58:28 PM 45.8400 -56.8500 74° East 486 559 35,000  Level FlightAware ADS-B
Tue 07:59:13 PM 45.8640 -56.7290 74° East 486 559 35,000  Level FlightAware ADS-B
Tue 08:00:03 PM 45.8980 -56.5590 74° East 485 558 35,000  Level FlightAware ADS-B
Tue 08:00:43 PM 45.9220 -56.4360 74° East 484 557 35,000  Level FlightAware ADS-B
Tue 08:01:28 PM 45.9500 -56.2910 74° East 483 556 35,000  Level FlightAware ADS-B
Tue 08:02:08 PM 45.9740 -56.1700 74° East 483 556 35,000  Level FlightAware ADS-B
Tue 08:02:48 PM 45.9980 -56.0460 74° East 483 556 35,000  Level FlightAware ADS-B
Tue 08:03:33 PM 46.0240 -55.9080 75° East 483 556 35,000  Level FlightAware ADS-B
Tue 08:04:03 PM 46.0410 -55.8190 75° East 483 556 35,000  Level FlightAware ADS-B
Tue 08:04:58 PM 46.0750 -55.6440 74° East 482 555 35,000  Level FlightAware ADS-B
Tue 08:05:38 PM 46.0980 -55.5230 75° East 483 556 35,000  Level FlightAware ADS-B
Tue 08:06:18 PM 46.1220 -55.3950 75° East 483 556 35,000  Level FlightAware ADS-B
Tue 08:07:13 PM 46.1510 -55.2360 75° East 483 556 35,000  Level FlightAware ADS-B
Tue 08:07:58 PM 46.1780 -55.0920 75° East 483 556 35,000  Level FlightAware ADS-B
Tue 08:08:53 PM 46.2080 -54.9300 75° East 483 556 35,000  Level FlightAware ADS-B
Tue 08:09:38 PM 46.2360 -54.7750 75° East 482 555 35,000  Level FlightAware ADS-B
Tue 08:10:18 PM 46.2560 -54.6650 75° East 482 555 35,000  Level FlightAware ADS-B
Tue 08:10:58 PM 46.2810 -54.5250 75° East 482 555 35,000  Level FlightAware ADS-B
Tue 08:11:43 PM 46.3060 -54.3860 75° East 487 560 35,000  Level FlightAware ADS-B
Tue 08:12:23 PM 46.3280 -54.2620 76° East 494 568 35,000  Level FlightAware ADS-B
Tue 08:13:08 PM 46.3540 -54.1110 76° East 498 573 35,000  Level FlightAware ADS-B
Tue 08:13:48 PM 46.3770 -53.9840 75° East 495 570 35,000  Level FlightAware ADS-B
Tue 08:14:28 PM 46.3980 -53.8570 76° East 494 568 35,000  Level FlightAware ADS-B
Tue 08:15:13 PM 46.4230 -53.7150 76° East 493 567 35,000  Level FlightAware ADS-B
Tue 08:15:53 PM 46.4450 -53.5870 76° East 492 566 35,000  Level FlightAware ADS-B
Tue 08:16:38 PM 46.4690 -53.4440 76° East 491 565 35,000  Level FlightAware ADS-B
Tue 08:17:18 PM 46.4910 -53.3170 76° East 489 563 35,000  Level FlightAware ADS-B
Tue 08:17:58 PM 46.5120 -53.1870 77° East 488 562 35,000  Level FlightAware ADS-B
Tue 08:18:43 PM 46.5370 -53.0410 76° East 488 562 35,000  Level FlightAware ADS-B
Tue 08:19:23 PM 46.5580 -52.9140 76° East 489 563 35,000  Level FlightAware ADS-B
Tue 08:19:58 PM 46.5740 -52.8150 77° East 489 563 35,000  Level FlightAware ADS-B
Tue 08:20:48 PM 46.6010 -52.6480 77° East 489 563 35,000  Level FlightAware ADS-B
Tue 08:21:28 PM 46.6220 -52.5190 77° East 489 563 35,000  Level FlightAware ADS-B
Tue 08:22:13 PM 46.6460 -52.3690 77° East 490 564 35,000  Level FlightAware ADS-B
Tue 08:22:53 PM 46.6660 -52.2420 77° East 491 565 35,000  Level FlightAware ADS-B
Tue 08:23:38 PM 46.6880 -52.1000 77° East 492 566 35,000  Level FlightAware ADS-B
Tue 08:24:18 PM 46.7080 -51.9730 77° East 493 567 35,000  Level FlightAware ADS-B
Tue 08:24:58 PM 46.7290 -51.8420 77° East 492 566 35,000  Level FlightAware ADS-B
Tue 08:25:43 PM 46.7510 -51.6960 78° East 493 567 35,000  Level FlightAware ADS-B
Tue 08:26:23 PM 46.7710 -51.5670 77° East 492 566 35,000  Level FlightAware ADS-B
Tue 08:27:03 PM 46.7910 -51.4380 77° East 492 566 35,000  Level FlightAware ADS-B
Tue 08:27:48 PM 46.8110 -51.3110 77° East 492 566 35,000  Level FlightAware ADS-B
Tue 08:28:28 PM 46.8280 -51.2010 77° East 492 566 35,000  Level FlightAware ADS-B
Tue 08:29:08 PM 46.8450 -51.0900 77° East 492 566 35,000  Level FlightAware ADS-B
Tue 08:29:48 PM 46.8630 -50.9800 77° East 492 566 35,000  Level FlightAware ADS-B
Tue 08:30:38 PM 46.8840 -50.8420 77° East 492 566 35,000  Level FlightAware ADS-B
Tue 08:31:18 PM 46.9020 -50.7320 76° East 492 566 35,000  Level FlightAware ADS-B
Tue 08:31:58 PM 46.9190 -50.6210 77° East 492 566 35,000  Level FlightAware ADS-B
Tue 08:32:38 PM 46.9370 -50.5110 76° East 492 566 35,000  Level FlightAware ADS-B
Tue 08:33:18 PM 46.9540 -50.4010 77° East 492 566 35,000  Level FlightAware ADS-B
Tue 08:33:58 PM 46.9710 -50.2900 77° East 492 566 35,000  Level FlightAware ADS-B
Tue 08:34:48 PM 46.9930 -50.1520 77° East 492 566 35,000  Level FlightAware ADS-B
Tue 08:35:28 PM 47.0110 -50.0410 77° East 492 566 35,000  Level FlightAware ADS-B
Tue 08:35:35 PM 47.0000 -50.0000 70° East 465 535 35,000  Level ETMS Enhanced Traffic Management System
Tue 08:36:13 PM 47.0580 -49.7120 78° East 474 545 35,000  Level FlightAware ADS-B
Tue 08:37:08 PM 47.0910 -49.5500 73° East 472 543 35,000  Level FlightAware ADS-B
Tue 08:37:48 PM 47.1130 -49.4460 73° East 472 543 35,000  Level FlightAware ADS-B
Tue 08:38:28 PM 47.1350 -49.3420 73° East 472 543 35,000  Level FlightAware ADS-B
Tue 08:39:08 PM 47.1560 -49.2370 74° East 472 543 35,000  Level FlightAware ADS-B
Tue 08:39:48 PM 47.1780 -49.1330 73° East 472 543 35,000  Level FlightAware ADS-B
Tue 08:40:38 PM 47.2050 -49.0020 70° East 472 543 35,000  Level FlightAware ADS-B
Tue 08:41:18 PM 47.2270 -48.8980 73° East 472 543 35,000  Level FlightAware ADS-B
Tue 08:41:58 PM 47.2490 -48.7930 73° East 472 543 35,000  Level FlightAware ADS-B
Tue 08:42:38 PM 47.2700 -48.6880 74° East 472 543 35,000  Level FlightAware ADS-B
Tue 08:43:18 PM 47.2920 -48.5840 73° East 472 543 35,000  Level FlightAware ADS-B
Tue 08:44:08 PM 47.3190 -48.4530 73° East 472 543 35,000  Level FlightAware ADS-B
Tue 08:44:48 PM 47.3410 -48.3480 73° East 472 543 35,000  Level FlightAware ADS-B
Tue 08:45:28 PM 47.3630 -48.2430 73° East 472 543 35,000  Level FlightAware ADS-B
Tue 08:46:08 PM 47.3840 -48.1380 74° East 472 543 35,000  Level FlightAware ADS-B
Tue 08:47:11 PM 47.5000 -47.6833 74° East 460 529 35,000  Level Gander Center
Tue 08:48:20 PM 47.5667 -47.4667 65° Northeast 460 529 35,000  Level Gander Center
Tue 08:49:20 PM 47.5833 -47.3167 81° East 450 518 35,000  Level Gander Center
Tue 08:50:20 PM 47.6333 -47.1333 68° East 460 529 35,000  Level Gander Center
Tue 08:51:20 PM 47.6667 -46.9500 75° East 460 529 35,000  Level Gander Center
Tue 08:52:20 PM 47.7000 -46.7500 76° East 470 541 35,000  Level Gander Center
Tue 08:54:00 PM 47.7683 -46.4474 71° East  Level FlightAware Approximate
Tue 09:01:00 PM 48.0464 -45.1682 72° East  Level FlightAware Approximate
Tue 09:02:00 PM 48.0850 -44.9843 73° East  Level FlightAware Approximate
Tue 09:03:00 PM 48.1233 -44.8002 73° East  Level FlightAware Approximate
Tue 09:04:00 PM 48.1612 -44.6157 73° East  Level FlightAware Approximate
Tue 09:05:00 PM 48.1989 -44.4311 73° East  Level FlightAware Approximate
Tue 09:06:00 PM 48.2363 -44.2461 73° East  Level FlightAware Approximate
Tue 09:07:00 PM 48.2734 -44.0609 73° East  Level FlightAware Approximate
Tue 09:08:00 PM 48.3102 -43.8754 73° East  Level FlightAware Approximate
Tue 09:09:00 PM 48.3467 -43.6896 73° East  Level FlightAware Approximate
Tue 09:10:00 PM 48.3829 -43.5036 74° East  Level FlightAware Approximate
Tue 09:11:00 PM 48.4188 -43.3173 74° East  Level FlightAware Approximate
Tue 09:12:00 PM 48.4543 -43.1307 74° East  Level FlightAware Approximate
Tue 09:13:00 PM 48.4896 -42.9439 74° East  Level FlightAware Approximate
Tue 09:14:00 PM 48.5246 -42.7569 74° East  Level FlightAware Approximate
Tue 09:15:00 PM 48.5593 -42.5695 74° East  Level FlightAware Approximate
Tue 09:16:00 PM 48.5937 -42.3819 74° East  Level FlightAware Approximate
Tue 09:17:00 PM 48.6278 -42.1941 75° East  Level FlightAware Approximate
Tue 09:18:00 PM 48.6615 -42.0060 75° East  Level FlightAware Approximate
Tue 09:19:00 PM 48.6950 -41.8176 75° East  Level FlightAware Approximate
Tue 09:20:00 PM 48.7281 -41.6291 75° East  Level FlightAware Approximate
Tue 09:21:00 PM 48.7610 -41.4402 75° East  Level FlightAware Approximate
Tue 09:22:00 PM 48.7935 -41.2511 75° East  Level FlightAware Approximate
Tue 09:23:00 PM 48.8258 -41.0618 75° East  Level FlightAware Approximate
Tue 09:24:00 PM 48.8577 -40.8722 76° East  Level FlightAware Approximate
Tue 09:25:00 PM 48.8893 -40.6824 76° East  Level FlightAware Approximate
Tue 09:26:00 PM 48.9206 -40.4923 76° East  Level FlightAware Approximate
Tue 09:27:00 PM 48.9515 -40.3020 76° East  Level FlightAware Approximate
Tue 09:28:00 PM 48.9822 -40.1115 76° East  Level FlightAware Approximate
Tue 09:29:00 PM 49.0192 -39.9238 69° East  Level FlightAware Approximate
Tue 09:30:00 PM 49.0653 -39.7403 69° East  Level FlightAware Approximate
Tue 09:30:00 PM 49.0000 -40.0000 69° East 465 535 35,000  Level ETMS Enhanced Traffic Management System
Tue 09:30:57 PM 49.0000 -40.0000 69° East 465 535 35,000  Level ETMS Enhanced Traffic Management System
Tue 09:31:00 PM 49.1110 -39.5565 69° East  Level FlightAware Approximate
Tue 09:32:00 PM 49.1565 -39.3723 69° East  Level FlightAware Approximate
Tue 09:33:00 PM 49.2017 -39.1878 69° East  Level FlightAware Approximate
Tue 09:34:00 PM 49.2465 -39.0030 70° East  Level FlightAware Approximate
Tue 09:35:00 PM 49.2911 -38.8178 70° East  Level FlightAware Approximate
Tue 09:36:00 PM 49.3184 -38.7039 70° East 465 535 35,000  Level FlightAware Transoceanic
Tue 09:37:00 PM 49.3626 -38.5174 70° East 465 535 35,000  Level FlightAware Transoceanic
Tue 09:38:00 PM 49.4066 -38.3306 70° East 465 535 35,000  Level FlightAware Transoceanic
Tue 09:39:00 PM 49.4503 -38.1434 70° East 465 535 35,000  Level FlightAware Transoceanic
Tue 09:40:00 PM 49.4937 -37.9559 70° East 465 535 35,000  Level FlightAware Transoceanic
Tue 09:41:00 PM 49.5368 -37.7681 71° East 465 535 35,000  Level FlightAware Transoceanic
Tue 09:42:00 PM 49.5796 -37.5799 71° East 465 535 35,000  Level FlightAware Transoceanic
Tue 09:43:00 PM 49.6220 -37.3914 71° East 465 535 35,000  Level FlightAware Transoceanic
Tue 09:44:00 PM 49.6642 -37.2026 71° East 465 535 35,000  Level FlightAware Transoceanic
Tue 09:45:00 PM 49.7061 -37.0134 71° East 465 535 35,000  Level FlightAware Transoceanic
Tue 09:46:00 PM 49.7476 -36.8240 71° East 465 535 35,000  Level FlightAware Transoceanic
Tue 09:47:00 PM 49.7888 -36.6342 71° East 465 535 35,000  Level FlightAware Transoceanic
Tue 09:48:00 PM 49.8298 -36.4440 72° East 465 535 35,000  Level FlightAware Transoceanic
Tue 09:49:00 PM 49.8704 -36.2536 72° East 465 535 35,000  Level FlightAware Transoceanic
Tue 09:50:00 PM 49.9107 -36.0628 72° East 465 535 35,000  Level FlightAware Transoceanic
Tue 09:51:00 PM 49.9507 -35.8717 72° East 465 535 35,000  Level FlightAware Transoceanic
Tue 09:52:00 PM 49.9903 -35.6804 72° East 465 535 35,000  Level FlightAware Transoceanic
Tue 09:53:00 PM 50.0297 -35.4886 72° East 465 535 35,000  Level FlightAware Transoceanic
Tue 09:54:00 PM 50.0687 -35.2966 73° East 465 535 35,000  Level FlightAware Transoceanic
Tue 09:55:00 PM 50.1075 -35.1043 73° East 465 535 35,000  Level FlightAware Transoceanic
Tue 09:56:00 PM 50.1459 -34.9116 73° East 465 535 35,000  Level FlightAware Transoceanic
Tue 09:57:00 PM 50.1840 -34.7187 73° East 465 535 35,000  Level FlightAware Transoceanic
Tue 09:58:00 PM 50.2217 -34.5254 73° East 465 535 35,000  Level FlightAware Transoceanic
Tue 09:59:00 PM 50.2592 -34.3318 73° East 465 535 35,000  Level FlightAware Transoceanic
Tue 10:00:00 PM 50.2963 -34.1380 73° East 465 535 35,000  Level FlightAware Transoceanic
Tue 10:01:00 PM 50.3331 -33.9438 74° East 465 535 35,000  Level FlightAware Transoceanic
Tue 10:02:00 PM 50.3696 -33.7493 74° East 465 535 35,000  Level FlightAware Transoceanic
Tue 10:03:00 PM 50.4058 -33.5546 74° East 465 535 35,000  Level FlightAware Transoceanic
Tue 10:04:00 PM 50.4416 -33.3595 74° East 465 535 35,000  Level FlightAware Transoceanic
Tue 10:05:00 PM 50.4771 -33.1641 74° East 465 535 35,000  Level FlightAware Transoceanic
Tue 10:06:00 PM 50.5123 -32.9685 74° East 465 535 35,000  Level FlightAware Transoceanic
Tue 10:07:00 PM 50.5471 -32.7725 74° East 465 535 35,000  Level FlightAware Transoceanic
Tue 10:08:00 PM 50.5816 -32.5763 75° East 465 535 35,000  Level FlightAware Transoceanic
Tue 10:09:00 PM 50.6158 -32.3798 75° East 465 535 35,000  Level FlightAware Transoceanic
Tue 10:10:00 PM 50.6497 -32.1830 75° East 465 535 35,000  Level FlightAware Transoceanic
Tue 10:11:00 PM 50.6832 -31.9859 75° East 465 535 35,000  Level FlightAware Transoceanic
Tue 10:12:00 PM 50.7164 -31.7885 75° East 465 535 35,000  Level FlightAware Transoceanic
Tue 10:13:00 PM 50.7492 -31.5909 75° East 465 535 35,000  Level FlightAware Transoceanic
Tue 10:14:00 PM 50.7818 -31.3930 76° East 465 535 35,000  Level FlightAware Transoceanic
Tue 10:15:00 PM 50.8140 -31.1948 76° East 465 535 35,000  Level FlightAware Transoceanic
Tue 10:16:00 PM 50.8458 -30.9963 76° East 465 535 35,000  Level FlightAware Transoceanic
Tue 10:17:00 PM 50.8773 -30.7976 76° East 465 535 35,000  Level FlightAware Transoceanic
Tue 10:18:00 PM 50.9085 -30.5986 76° East 465 535 35,000  Level FlightAware Transoceanic
Tue 10:19:00 PM 50.9393 -30.3993 76° East 465 535 35,000  Level FlightAware Transoceanic
Tue 10:20:00 PM 50.9698 -30.1998 76° East 465 535 35,000  Level FlightAware Transoceanic
Tue 10:21:00 PM 50.9999 -30.0009 76° East  Level FlightAware Approximate
Tue 10:22:00 PM 51.0298 -29.8018 76° East  Level FlightAware Approximate
Tue 10:23:00 PM 51.0286 -29.8022 77° East  Level FlightAware Approximate
Tue 10:24:00 PM 51.0571 -29.6025 77° East  Level FlightAware Approximate
Tue 10:24:00 PM 51.0000 -30.0000 77° East 462 532 35,000  Level ETMS Enhanced Traffic Management System
Tue 10:25:00 PM 51.0853 -29.4025 77° East  Level FlightAware Approximate
Tue 10:26:00 PM 51.1131 -29.2022 77° East  Level FlightAware Approximate
Tue 10:27:00 PM 51.1406 -29.0018 78° East  Level FlightAware Approximate
Tue 10:28:00 PM 51.1677 -28.8010 78° East  Level FlightAware Approximate
Tue 10:29:00 PM 51.1945 -28.6001 78° East  Level FlightAware Approximate
Tue 10:30:00 PM 51.2208 -28.3999 78° East 462 532 35,000  Level FlightAware Transoceanic
Tue 10:31:00 PM 51.2469 -28.1989 78° East 462 532 35,000  Level FlightAware Transoceanic
Tue 10:32:00 PM 51.2726 -27.9976 79° East 462 532 35,000  Level FlightAware Transoceanic
Tue 10:33:00 PM 51.2980 -27.7960 79° East 462 532 35,000  Level FlightAware Transoceanic
Tue 10:34:00 PM 51.3230 -27.5943 79° East 462 532 35,000  Level FlightAware Transoceanic
Tue 10:35:00 PM 51.3477 -27.3923 79° East 462 532 35,000  Level FlightAware Transoceanic
Tue 10:36:00 PM 51.3720 -27.1902 79° East 462 532 35,000  Level FlightAware Transoceanic
Tue 10:37:00 PM 51.3960 -26.9878 79° East 462 532 35,000  Level FlightAware Transoceanic
Tue 10:38:00 PM 51.4197 -26.7852 79° East 462 532 35,000  Level FlightAware Transoceanic
Tue 10:39:00 PM 51.4429 -26.5824 80° East 462 532 35,000  Level FlightAware Transoceanic
Tue 10:40:00 PM 51.4659 -26.3794 80° East 462 532 35,000  Level FlightAware Transoceanic
Tue 10:41:00 PM 51.4884 -26.1762 80° East 462 532 35,000  Level FlightAware Transoceanic
Tue 10:42:00 PM 51.5107 -25.9727 80° East 462 532 35,000  Level FlightAware Transoceanic
Tue 10:43:00 PM 51.5326 -25.7691 80° East 462 532 35,000  Level FlightAware Transoceanic
Tue 10:44:00 PM 51.5541 -25.5653 80° East 462 532 35,000  Level FlightAware Transoceanic
Tue 10:45:00 PM 51.5753 -25.3613 81° East 462 532 35,000  Level FlightAware Transoceanic
Tue 10:46:00 PM 51.5961 -25.1572 81° East 462 532 35,000  Level FlightAware Transoceanic
Tue 10:47:00 PM 51.6166 -24.9528 81° East 462 532 35,000  Level FlightAware Transoceanic
Tue 10:48:00 PM 51.6367 -24.7482 81° East 462 532 35,000  Level FlightAware Transoceanic
Tue 10:49:00 PM 51.6564 -24.5435 81° East 462 532 35,000  Level FlightAware Transoceanic
Tue 10:50:00 PM 51.6758 -24.3386 81° East 462 532 35,000  Level FlightAware Transoceanic
Tue 10:51:00 PM 51.6949 -24.1335 82° East 462 532 35,000  Level FlightAware Transoceanic
Tue 10:52:00 PM 51.7135 -23.9282 82° East 462 532 35,000  Level FlightAware Transoceanic
Tue 10:53:00 PM 51.7319 -23.7228 82° East 462 532 35,000  Level FlightAware Transoceanic
Tue 10:54:00 PM 51.7498 -23.5172 82° East 462 532 35,000  Level FlightAware Transoceanic
Tue 10:55:00 PM 51.7674 -23.3115 82° East 462 532 35,000  Level FlightAware Transoceanic
Tue 10:56:00 PM 51.7847 -23.1056 82° East 462 532 35,000  Level FlightAware Transoceanic
Tue 10:57:00 PM 51.8016 -22.8995 83° East 462 532 35,000  Level FlightAware Transoceanic
Tue 10:58:00 PM 51.8181 -22.6933 83° East 462 532 35,000  Level FlightAware Transoceanic
Tue 10:59:00 PM 51.8343 -22.4869 83° East 462 532 35,000  Level FlightAware Transoceanic
Tue 11:00:00 PM 51.8501 -22.2804 83° East 462 532 35,000  Level FlightAware Transoceanic
Tue 11:01:00 PM 51.8655 -22.0738 83° East 462 532 35,000  Level FlightAware Transoceanic
Tue 11:02:00 PM 51.8806 -21.8670 83° East 462 532 35,000  Level FlightAware Transoceanic
Tue 11:03:00 PM 51.8953 -21.6600 84° East 462 532 35,000  Level FlightAware Transoceanic
Tue 11:04:00 PM 51.9097 -21.4530 84° East 462 532 35,000  Level FlightAware Transoceanic
Tue 11:05:00 PM 51.9237 -21.2458 84° East 462 532 35,000  Level FlightAware Transoceanic
Tue 11:06:00 PM 51.9373 -21.0384 84° East 462 532 35,000  Level FlightAware Transoceanic
Tue 11:07:00 PM 51.9506 -20.8310 84° East 462 532 35,000  Level FlightAware Transoceanic
Tue 11:08:00 PM 51.9635 -20.6234 84° East 462 532 35,000  Level FlightAware Transoceanic
Tue 11:09:00 PM 51.9760 -20.4157 84° East 462 532 35,000  Level FlightAware Transoceanic
Tue 11:10:00 PM 51.9882 -20.2079 85° East 462 532 35,000 81 Level FlightAware Transoceanic
Tue 11:11:00 PM 52.0000 -19.9996 85° East  Level FlightAware Approximate
Tue 11:12:00 PM 52.0001 -19.9993 80° East  Level FlightAware Approximate
Tue 11:13:00 PM 52.0230 -19.7934 80° East  Level FlightAware Approximate
Tue 11:14:00 PM 52.0455 -19.5873 80° East  Level FlightAware Approximate
Tue 11:15:00 PM 52.0677 -19.3810 80° East  Level FlightAware Approximate
Tue 11:16:00 PM 52.0896 -19.1745 80° East  Level FlightAware Approximate
Tue 11:17:00 PM 52.1110 -18.9677 80° East  Level FlightAware Approximate
Tue 11:18:00 PM 52.1321 -18.7608 80° East  Level FlightAware Approximate
Tue 11:19:00 PM 52.1529 -18.5537 81° East  Level FlightAware Approximate
Tue 11:20:00 PM 52.1733 -18.3464 81° East  Level FlightAware Approximate
Tue 11:21:00 PM 52.1933 -18.1389 81° East  Level FlightAware Approximate
Tue 11:22:00 PM 52.2130 -17.9313 81° East  Level FlightAware Approximate
Tue 11:23:00 PM 52.2322 -17.7234 81° East  Level FlightAware Approximate
Tue 11:24:00 PM 52.2512 -17.5154 81° East  Level FlightAware Approximate
Tue 11:25:00 PM 52.2697 -17.3071 82° East  Level FlightAware Approximate
Tue 11:26:00 PM 52.2879 -17.0988 82° East  Level FlightAware Approximate
Tue 11:27:00 PM 52.3058 -16.8902 82° East  Level FlightAware Approximate
Tue 11:28:00 PM 52.3232 -16.6815 82° East  Level FlightAware Approximate
Tue 11:29:00 PM 52.3403 -16.4726 82° East  Level FlightAware Approximate
Tue 11:30:00 PM 52.3570 -16.2636 82° East  Level FlightAware Approximate
Tue 11:31:00 PM 52.3734 -16.0544 83° East  Level FlightAware Approximate
Tue 11:32:00 PM 52.3894 -15.8450 83° East  Level FlightAware Approximate
Tue 11:33:00 PM 52.4050 -15.6355 83° East  Level FlightAware Approximate
Tue 11:34:00 PM 52.4202 -15.4259 83° East  Level FlightAware Approximate
Tue 11:35:00 PM 52.4351 -15.2161 83° East  Level FlightAware Approximate
Tue 11:36:00 PM 52.4496 -15.0062 83° East  Level FlightAware Approximate
Tue 11:37:00 PM 52.4643 -14.7962 83° East  Level FlightAware Approximate
Tue 11:38:00 PM 52.4787 -14.5861 84° East  Level FlightAware Approximate
Tue 11:39:00 PM 52.4930 -14.3759 84° East  Level FlightAware Approximate
Tue 11:40:00 PM 52.5071 -14.1656 84° East  Level FlightAware Approximate
Tue 11:41:00 PM 52.5209 -13.9552 84° East  Level FlightAware Approximate
Tue 11:42:00 PM 52.5343 -13.7447 84° East  Level FlightAware Approximate
Tue 11:43:00 PM 52.5473 -13.5340 84° East  Level FlightAware Approximate
Tue 11:44:00 PM 52.5599 -13.3232 84° East  Level FlightAware Approximate
Tue 11:45:00 PM 52.5722 -13.1123 84° East  Level FlightAware Approximate
Tue 11:46:00 PM 52.5841 -12.9013 85° East  Level FlightAware Approximate
Tue 11:46:04 PM 52.1940 -12.6840 85° East 491 565 38,000  Level FlightAware ADS-B
Tue 11:46:44 PM 52.2080 -12.5390 81° East 492 566 38,000  Level FlightAware ADS-B
Tue 11:47:29 PM 52.2250 -12.3720 81° East 492 566 38,000  Level FlightAware ADS-B
Tue 11:48:04 PM 52.2380 -12.2390 81° East 493 567 38,000  Level FlightAware ADS-B
Tue 11:48:59 PM 52.2570 -12.0380 81° East 495 570 38,000  Level FlightAware ADS-B
Tue 11:49:44 PM 52.2720 -11.8830 81° East 497 572 38,000  Level FlightAware ADS-B
Tue 11:50:34 PM 52.2860 -11.7310 81° East 499 574 38,000  Level FlightAware ADS-B
Tue 11:51:24 PM 52.3040 -11.5400 81° East 500 575 38,000  Level FlightAware ADS-B
Tue 11:52:04 PM 52.3170 -11.3890 82° East 501 577 38,000  Level FlightAware ADS-B
Tue 11:52:49 PM 52.3320 -11.2250 81° East 502 578 38,000  Level FlightAware ADS-B
Tue 11:53:29 PM 52.3460 -11.0600 82° East 502 578 38,000  Level FlightAware ADS-B
Tue 11:54:09 PM 52.3570 -10.9330 82° East 502 578 38,000  Level FlightAware ADS-B
Tue 11:54:54 PM 52.3720 -10.7520 82° East 502 578 38,000  Level FlightAware ADS-B
Tue 11:55:39 PM 52.3860 -10.5880 82° East 501 577 38,000  Level FlightAware ADS-B
Tue 11:56:19 PM 52.3990 -10.4260 82° East 501 577 38,000  Level FlightAware ADS-B
Tue 11:57:14 PM 52.4140 -10.2290 83° East 502 578 38,000  Level FlightAware ADS-B
Tue 11:57:54 PM 52.4260 -10.0750 83° East 502 578 38,000  Level FlightAware ADS-B
Tue 11:58:39 PM 52.4390 -9.9160 82° East 502 578 38,000  Level FlightAware ADS-B
Tue 11:59:19 PM 52.4510 -9.7530 83° East 503 579 38,000  Level FlightAware ADS-B
Tue 11:59:54 PM 52.4610 -9.6190 83° East 504 580 38,000  Level FlightAware ADS-B
Wed 12:00:44 AM 52.4740 -9.4320 83° East 506 582 38,000  Level FlightAware ADS-B
Wed 12:01:39 AM 52.4890 -9.2220 83° East 508 585 38,000 -900 Level FlightAware ADS-B
Wed 12:02:24 AM 52.5060 -8.9909 83° East 452 520 36,500  Descending FlightAware UK
Wed 12:02:24 AM 52.5000 -9.0590 83° East 510 587 38,000  Climbing FlightAware ADS-B
Wed 12:02:42 AM 52.5111 -8.9224 83° East 454 522 36,500 -2,500 Descending FlightAware UK
Wed 12:03:00 AM 52.5163 -8.8533 83° East 454 522 36,500 4,091 Level FlightAware UK
Wed 12:03:04 AM 52.5120 -8.8900 83° East 512 589 38,000  Climbing FlightAware ADS-B
Wed 12:03:24 AM 52.5225 -8.7600 83° East 456 525 36,500  Descending FlightAware UK
Wed 12:03:39 AM 52.5210 -8.7550 84° East 514 592 38,000  Climbing FlightAware ADS-B
Wed 12:03:42 AM 52.5270 -8.6901 84° East 456 525 36,500 -6,000 Descending FlightAware UK
Wed 12:03:54 AM 52.5303 -8.6439 84° East 454 522 36,500  Level FlightAware UK
Wed 12:04:12 AM 52.5352 -8.5743 83° East 454 522 36,500 2,571 Level FlightAware UK
Wed 12:04:29 AM 52.5330 -8.5670 84° East 515 593 38,000  Climbing FlightAware ADS-B
Wed 12:04:30 AM 52.5398 -8.5044 84° East 454 522 36,500 -4,737 Descending FlightAware UK
Wed 12:04:48 AM 52.5444 -8.4336 84° East 456 525 36,500  Level FlightAware UK
Wed 12:05:06 AM 52.5489 -8.3643 84° East 456 525 36,500  Level FlightAware UK
Wed 12:05:24 AM 52.5534 -8.2934 84° East 456 525 36,500 5,000 Level FlightAware UK
Wed 12:05:24 AM 52.5470 -8.3480 84° East 516 594 38,000  Climbing FlightAware ADS-B
Wed 12:05:42 AM 52.5579 -8.2231 84° East 456 525 36,500  Descending FlightAware UK
Wed 12:05:59 AM 52.5560 -8.2070 84° East 517 595 38,000  Climbing FlightAware ADS-B
Wed 12:06:00 AM 52.5622 -8.1527 84° East 458 527 36,500 -4,737 Descending FlightAware UK
Wed 12:06:18 AM 52.5666 -8.0824 84° East 456 525 36,500  Level FlightAware UK
Wed 12:06:36 AM 52.5710 -8.0120 84° East 458 527 36,500 2,903 Level FlightAware UK
Wed 12:06:49 AM 52.5670 -8.0310 84° East 519 597 38,000  Climbing FlightAware ADS-B
Wed 12:07:06 AM 52.5784 -7.8942 84° East 460 529 36,500 -2,571 Descending FlightAware UK
Wed 12:07:24 AM 52.5826 -7.8234 84° East 460 529 36,500 3,913 Level FlightAware UK
Wed 12:07:29 AM 52.5760 -7.8700 84° East 519 597 38,000  Climbing FlightAware ADS-B
Wed 12:07:48 AM 52.5882 -7.7290 84° East 460 529 36,500 -2,432 Descending FlightAware UK
Wed 12:08:06 AM 52.5924 -7.6582 84° East 460 529 36,500  Level FlightAware UK
Wed 12:08:24 AM 52.5965 -7.5866 85° East 462 532 36,500 5,000 Level FlightAware UK
Wed 12:08:24 AM 52.5890 -7.6490 85° East 520 598 38,000  Climbing FlightAware ADS-B
Wed 12:08:42 AM 52.6006 -7.5167 85° East 464 534 36,500 -2,500 Descending FlightAware UK
Wed 12:09:00 AM 52.6048 -7.4454 84° East 464 534 36,500 3,333 Level FlightAware UK
Wed 12:09:09 AM 52.5980 -7.4810 84° East 519 597 38,000  Climbing FlightAware ADS-B
Wed 12:09:24 AM 52.6100 -7.3513 84° East 464 534 36,500 -2,727 Descending FlightAware UK
Wed 12:09:42 AM 52.6137 -7.2810 85° East 464 534 36,500 3,600 Level FlightAware UK
Wed 12:09:49 AM 52.6080 -7.3080 85° East 517 595 38,000  Climbing FlightAware ADS-B
Wed 12:10:06 AM 52.6187 -7.1874 85° East 462 532 36,500 -2,571 Descending FlightAware UK
Wed 12:10:24 AM 52.6225 -7.1172 85° East 462 532 36,500  Level FlightAware UK
Wed 12:10:42 AM 52.6263 -7.0472 85° East 460 529 36,500 4,500 Level FlightAware UK
Wed 12:10:44 AM 52.6190 -7.0940 85° East 514 592 38,000  Climbing FlightAware ADS-B
Wed 12:11:00 AM 52.6299 -6.9774 85° East 458 527 36,500 -2,647 Descending FlightAware UK
Wed 12:11:18 AM 52.6337 -6.9076 85° East 458 527 36,500  Level FlightAware UK
Wed 12:11:36 AM 52.6373 -6.8380 85° East 458 527 36,500 4,286 Level FlightAware UK
Wed 12:11:39 AM 52.6300 -6.8870 85° East 512 589 38,000  Climbing FlightAware ADS-B
Wed 12:11:54 AM 52.6407 -6.7685 85° East 458 527 36,500 -2,727 Descending FlightAware UK
Wed 12:12:12 AM 52.6441 -6.6991 85° East 458 527 36,500 3,000 Level FlightAware UK
Wed 12:12:24 AM 52.6400 -6.6760 85° East 509 586 38,000  Climbing FlightAware ADS-B
Wed 12:12:42 AM 52.6500 -6.5830 85° East 456 525 36,500  Descending FlightAware UK
Wed 12:12:59 AM 52.6470 -6.5380 85° East 508 585 38,000  Climbing FlightAware ADS-B
Wed 12:13:00 AM 52.6533 -6.5138 85° East 456 525 36,500 -4,737 Descending FlightAware UK
Wed 12:13:18 AM 52.6567 -6.4447 85° East 454 522 36,500  Level FlightAware UK
Wed 12:13:36 AM 52.6601 -6.3757 85° East 456 525 36,500 2,903 Level FlightAware UK
Wed 12:13:49 AM 52.6560 -6.3430 85° East 505 581 38,000  Climbing FlightAware ADS-B
Wed 12:14:06 AM 52.6654 -6.2611 85° East 452 520 36,500 -2,571 Descending FlightAware UK
Wed 12:14:24 AM 52.6685 -6.1919 86° East 454 522 36,500 3,913 Level FlightAware UK
Wed 12:14:29 AM 52.6630 -6.1900 86° East 503 579 38,000  Climbing FlightAware ADS-B
Wed 12:14:49 AM 52.6727 -6.1000 86° East 454 522 36,500 -2,368 Descending FlightAware UK
Wed 12:15:07 AM 52.6758 -6.0317 86° East 452 520 36,500 4,500 Level FlightAware UK
Wed 12:15:09 AM 52.6700 -6.0400 86° East 501 577 38,000  Climbing FlightAware ADS-B
Wed 12:15:24 AM 52.6788 -5.9642 86° East 452 520 36,500 -2,647 Descending FlightAware UK
Wed 12:15:43 AM 52.6818 -5.8953 86° East 452 520 36,500 3,000 Level FlightAware UK
Wed 12:15:54 AM 52.6770 -5.8860 86° East 500 575 38,000  Climbing FlightAware ADS-B
Wed 12:16:13 AM 52.6868 -5.7819 86° East 450 518 36,500 -2,432 Descending FlightAware UK
Wed 12:16:31 AM 52.6895 -5.7139 86° East 450 518 36,500 4,286 Level FlightAware UK
Wed 12:16:34 AM 52.6830 -5.7370 86° East 499 574 38,000  Climbing FlightAware ADS-B
Wed 12:16:55 AM 52.6932 -5.6234 86° East 446 513 36,500 -2,308 Descending FlightAware UK
Wed 12:17:13 AM 52.6960 -5.5556 86° East 448 516 36,500 4,737 Level FlightAware UK
Wed 12:17:14 AM 52.6890 -5.5840 86° East 498 573 38,000  Climbing FlightAware ADS-B
Wed 12:17:31 AM 52.6988 -5.4871 86° East 448 516 36,500 -2,571 Descending FlightAware UK
Wed 12:17:49 AM 52.7015 -5.4200 86° East 448 516 36,500 3,214 Level FlightAware UK
Wed 12:17:59 AM 52.6960 -5.4120 86° East 498 573 38,000  Climbing FlightAware ADS-B
Wed 12:18:19 AM 52.7060 -5.3055 86° East 448 516 36,500 -2,368 Descending FlightAware UK
Wed 12:18:37 AM 52.7087 -5.2377 86° East 446 513 36,500 4,500 Level FlightAware UK
Wed 12:18:39 AM 52.7020 -5.2590 86° East 497 572 38,000  Climbing FlightAware ADS-B
Wed 12:18:55 AM 52.7111 -5.1699 86° East 444 511 36,500 -2,647 Descending FlightAware UK
Wed 12:19:13 AM 52.7135 -5.1022 87° East 444 511 36,500 3,103 Level FlightAware UK
Wed 12:19:24 AM 52.7080 -5.0930 87° East 496 571 38,000  Climbing FlightAware ADS-B
Wed 12:19:43 AM 52.7176 -4.9893 87° East 446 513 36,500 -2,432 Descending FlightAware UK
Wed 12:20:01 AM 52.7200 -4.9215 87° East 444 511 36,500 4,286 Level FlightAware UK
Wed 12:20:04 AM 52.7130 -4.9450 87° East 497 572 38,000  Climbing FlightAware ADS-B
Wed 12:20:19 AM 52.7224 -4.8536 87° East 444 511 36,500 -2,727 Descending FlightAware UK
Wed 12:20:37 AM 52.7247 -4.7849 87° East 448 516 36,500 3,462 Level FlightAware UK
Wed 12:20:45 AM 52.7194 -4.7662 87° East 499 574 38,000  Climbing FlightAware ADS-B
Wed 12:21:01 AM 52.7279 -4.6942 87° East 448 516 36,500  Descending FlightAware UK
Wed 12:21:16 AM 52.7234 -4.6479 87° East 500 575 38,000  Climbing FlightAware ADS-B
Wed 12:21:31 AM 52.7315 -4.5806 87° East 448 516 36,500  Descending FlightAware UK
Wed 12:21:46 AM 52.7270 -4.5332 87° East 500 575 38,000  Climbing FlightAware ADS-B
Wed 12:22:01 AM 52.7350 -4.4670 87° East 450 518 36,500  Descending FlightAware UK
Wed 12:22:16 AM 52.7306 -4.4186 87° East 501 577 38,000  Climbing FlightAware ADS-B
Wed 12:22:31 AM 52.7385 -4.3525 87° East 450 518 36,500  Descending FlightAware UK
Wed 12:22:47 AM 52.7342 -4.3015 87° East 501 577 38,000  Climbing FlightAware ADS-B
Wed 12:23:07 AM 52.7426 -4.2159 87° East 450 518 36,500  Descending FlightAware UK
Wed 12:23:18 AM 52.7378 -4.1837 87° East 501 577 38,000  Climbing FlightAware ADS-B
Wed 12:23:37 AM 52.7460 -4.1020 87° East 450 518 36,500  Descending FlightAware UK
Wed 12:23:48 AM 52.7411 -4.0681 87° East 502 578 38,000  Climbing FlightAware ADS-B
Wed 12:24:07 AM 52.7490 -3.9880 87° East 450 518 36,500  Descending FlightAware UK
Wed 12:24:19 AM 52.7443 -3.9522 87° East 502 578 38,000  Climbing FlightAware ADS-B
Wed 12:24:37 AM 52.7521 -3.8739 87° East 452 520 36,500  Descending FlightAware UK
Wed 12:24:49 AM 52.7469 -3.8370 87° East 502 578 38,000  Climbing FlightAware ADS-B
Wed 12:25:07 AM 52.7527 -3.7594 87° East 452 520 36,500  Descending FlightAware UK
Wed 12:25:20 AM 52.7471 -3.7199 87° East 503 579 38,000  Climbing FlightAware ADS-B
Wed 12:25:38 AM 52.7524 -3.6441 87° East 452 520 36,500  Descending FlightAware UK
Wed 12:25:50 AM 52.7469 -3.6051 87° East 503 579 38,000  Climbing FlightAware ADS-B
Wed 12:26:08 AM 52.7523 -3.5296 87° East 454 522 36,500  Descending FlightAware UK
Wed 12:26:21 AM 52.7469 -3.4848 87° East 504 580 38,000  Climbing FlightAware ADS-B
Wed 12:26:38 AM 52.7521 -3.4149 87° East 454 522 36,500  Descending FlightAware UK
Wed 12:26:51 AM 52.7469 -3.3691 87° East 504 580 38,000  Climbing FlightAware ADS-B
Wed 12:27:08 AM 52.7521 -3.2994 87° East 456 525 36,500  Descending FlightAware UK
Wed 12:27:22 AM 52.7471 -3.2523 87° East 504 580 38,000  Climbing FlightAware ADS-B
Wed 12:27:38 AM 52.7521 -3.1846 87° East 456 525 36,500  Descending FlightAware UK
Wed 12:27:52 AM 52.7471 -3.1373 87° East 504 580 38,000  Climbing FlightAware ADS-B
Wed 12:28:08 AM 52.7521 -3.0706 87° East 456 525 36,500  Descending FlightAware UK
Wed 12:28:22 AM 52.7471 -3.0201 87° East 504 580 38,000  Climbing FlightAware ADS-B
Wed 12:28:38 AM 52.7518 -2.9546 87° East 454 522 36,500  Descending FlightAware UK
Wed 12:28:53 AM 52.7469 -2.9037 87° East 504 580 38,000  Climbing FlightAware ADS-B
Wed 12:29:08 AM 52.7513 -2.8409 87° East 456 525 36,500  Descending FlightAware UK
Wed 12:29:23 AM 52.7466 -2.7880 87° East 504 580 38,000  Climbing FlightAware ADS-B
Wed 12:29:38 AM 52.7507 -2.7264 87° East 456 525 36,500  Descending FlightAware UK
Wed 12:29:53 AM 52.7462 -2.6723 87° East 504 580 38,000  Climbing FlightAware ADS-B
Wed 12:30:08 AM 52.7501 -2.6112 87° East 454 522 36,500  Descending FlightAware UK
Wed 12:30:23 AM 52.7457 -2.5573 87° East 504 580 38,000  Climbing FlightAware ADS-B
Wed 12:30:38 AM 52.7495 -2.4966 87° East 454 522 36,500  Descending FlightAware UK
Wed 12:30:53 AM 52.7450 -2.4416 87° East 504 580 38,000  Climbing FlightAware ADS-B
Wed 12:31:08 AM 52.7485 -2.3812 87° East 454 522 36,500  Descending FlightAware UK
Wed 12:31:24 AM 52.7443 -2.3243 87° East 504 580 38,000  Climbing FlightAware ADS-B
Wed 12:31:44 AM 52.7473 -2.2437 87° East 454 522 36,500  Descending FlightAware UK
Wed 12:31:54 AM 52.7435 -2.2071 87° East 504 580 38,000  Climbing FlightAware ADS-B
Wed 12:32:14 AM 52.7461 -2.1299 87° East 454 522 36,500  Descending FlightAware UK
Wed 12:32:25 AM 52.7424 -2.0912 87° East 504 580 38,000  Climbing FlightAware ADS-B
Wed 12:32:44 AM 52.7449 -2.0161 87° East 454 522 36,500  Descending FlightAware UK
Wed 12:32:55 AM 52.7414 -1.9764 87° East 504 580 38,000  Climbing FlightAware ADS-B
Wed 12:33:14 AM 52.7437 -1.9008 87° East 454 522 36,500  Descending FlightAware UK
Wed 12:33:25 AM 52.7402 -1.8607 87° East 504 580 38,000  Climbing FlightAware ADS-B
Wed 12:33:44 AM 52.7421 -1.7856 87° East 454 522 36,500  Descending FlightAware UK
Wed 12:33:56 AM 52.7388 -1.7427 87° East 504 580 38,000  Climbing FlightAware ADS-B
Wed 12:34:14 AM 52.7405 -1.6711 87° East 456 525 36,500  Descending FlightAware UK
Wed 12:34:26 AM 52.7374 -1.6262 87° East 504 580 38,000  Climbing FlightAware ADS-B
Wed 12:34:44 AM 52.7389 -1.5565 87° East 458 527 36,500  Descending FlightAware UK
Wed 12:34:56 AM 52.7359 -1.5105 87° East 503 579 38,000  Climbing FlightAware ADS-B
Wed 12:35:14 AM 52.7371 -1.4412 87° East 454 522 36,500  Descending FlightAware UK
Wed 12:35:27 AM 52.7342 -1.3942 87° East 503 579 38,000  Climbing FlightAware ADS-B
Wed 12:35:44 AM 52.7351 -1.3268 87° East 452 520 36,500  Descending FlightAware UK
Wed 12:35:57 AM 52.7325 -1.2780 87° East 503 579 38,000  Climbing FlightAware ADS-B
Wed 12:36:14 AM 52.7331 -1.2133 87° East 454 522 36,500  Descending FlightAware UK
Wed 12:36:28 AM 52.7306 -1.1618 87° East 503 579 38,000  Climbing FlightAware ADS-B
Wed 12:36:45 AM 52.7311 -1.0976 87° East 454 522 36,500  Descending FlightAware UK
Wed 12:36:58 AM 52.7286 -1.0441 87° East 503 579 38,000  Climbing FlightAware ADS-B
Wed 12:37:15 AM 52.7288 -0.9826 87° East 454 522 36,500  Descending FlightAware UK
Wed 12:37:29 AM 52.7265 -0.9265 87° East 502 578 38,000  Climbing FlightAware ADS-B
Wed 12:37:45 AM 52.7263 -0.8684 87° East 452 520 36,500  Descending FlightAware UK
Wed 12:38:00 AM 52.7242 -0.8105 87° East 502 578 38,000  Climbing FlightAware ADS-B
Wed 12:38:15 AM 52.7239 -0.7543 87° East 452 520 36,500  Descending FlightAware UK
Wed 12:38:30 AM 52.7220 -0.6928 87° East 502 578 38,000  Climbing FlightAware ADS-B
Wed 12:38:45 AM 52.7214 -0.6394 87° East 454 522 36,500  Descending FlightAware UK
Wed 12:39:01 AM 52.7196 -0.5768 87° East 502 578 38,000  Climbing FlightAware ADS-B
Wed 12:39:21 AM 52.7183 -0.5025 87° East 454 522 36,500  Descending FlightAware UK
Wed 12:39:31 AM 52.7170 -0.4608 87° East 502 578 38,000  Climbing FlightAware ADS-B
Wed 12:39:51 AM 52.7153 -0.3884 87° East 454 522 36,500  Descending FlightAware UK
Wed 12:40:01 AM 52.7145 -0.3464 87° East 502 578 38,000  Climbing FlightAware ADS-B
Wed 12:40:21 AM 52.7124 -0.2744 87° East 454 522 36,500  Descending FlightAware UK
Wed 12:40:32 AM 52.7117 -0.2304 87° East 502 578 38,000  Climbing FlightAware ADS-B
Wed 12:40:51 AM 52.7093 -0.1596 87° East 454 522 36,500  Descending FlightAware UK
Wed 12:41:02 AM 52.7088 -0.1145 87° East 502 578 38,000  Climbing FlightAware ADS-B
Wed 12:41:21 AM 52.7062 -0.0456 87° East 452 520 36,500  Descending FlightAware UK
Wed 12:41:32 AM 52.7059 0.0006 87° East 502 578 38,000  Climbing FlightAware ADS-B
Wed 12:41:51 AM 52.7031 0.0684 87° East 452 520 36,500  Descending FlightAware UK
Wed 12:42:02 AM 52.7028 0.1151 87° East 502 578 38,000  Climbing FlightAware ADS-B
Wed 12:42:21 AM 52.6997 0.1824 87° East 454 522 36,500  Descending FlightAware UK
Wed 12:42:33 AM 52.6997 0.2333 87° East 503 579 38,000  Climbing FlightAware ADS-B
Wed 12:42:51 AM 52.6962 0.2971 87° East 454 522 36,500  Descending FlightAware UK
Wed 12:43:05 AM 52.6962 0.3522 87° East 503 579 38,000  Climbing FlightAware ADS-B
Wed 12:43:22 AM 52.6926 0.4117 87° East 456 525 36,500  Descending FlightAware UK
Wed 12:43:35 AM 52.6929 0.4672 87° East 502 578 38,000  Climbing FlightAware ADS-B
Wed 12:43:52 AM 52.6889 0.5257 87° East 458 527 36,500  Descending FlightAware UK
Wed 12:44:07 AM 52.6890 0.5891 87° East 502 578 38,000 -200 Climbing FlightAware ADS-B
Wed 12:44:22 AM 52.6852 0.6396 87° East 458 527 36,400 -375 Descending FlightAware UK
Wed 12:44:39 AM 52.6853 0.7108 87° East 495 570 37,800 -1,000 Climbing FlightAware ADS-B
Wed 12:44:58 AM 52.6805 0.7750 87° East 444 511 35,800 -1,600 Descending FlightAware UK
Wed 12:45:09 AM 52.6815 0.8250 87° East 498 573 37,000 -1,600 Climbing FlightAware ADS-B
Wed 12:45:28 AM 52.6766 0.8870 87° East 450 518 35,000 -1,355 Descending FlightAware UK
Wed 12:45:40 AM 52.6777 0.9396 87° East 497 572 36,300 -800 Climbing FlightAware ADS-B
Wed 12:45:58 AM 52.6727 0.9996 87° East 450 518 34,600 -1,000 Descending FlightAware UK
Wed 12:46:10 AM 52.6738 1.0528 87° East 494 568 35,800 -1,655 Climbing FlightAware ADS-B
Wed 12:46:27 AM 52.6686 1.1110 87° East 448 516 33,800 -1,400 Descending FlightAware UK
Wed 12:46:40 AM 52.6698 1.1654 87° East 495 570 35,100 -1,200 Climbing FlightAware ADS-B
Wed 12:46:57 AM 52.6643 1.2232 87° East 448 516 33,200 -1,355 Descending FlightAware UK
Wed 12:47:11 AM 52.6655 1.2840 87° East 495 570 34,400 -1,000 Climbing FlightAware ADS-B
Wed 12:47:27 AM 52.6598 1.3355 87° East 452 520 32,700 -774 Descending FlightAware UK
Wed 12:47:42 AM 52.6612 1.3964 87° East 490 564 34,000 -1,355 Climbing FlightAware ADS-B
Wed 12:47:58 AM 52.6552 1.4475 87° East 450 518 32,000 -4,364 Descending FlightAware UK
Wed 12:48:15 AM 52.6526 1.5130 94° East 454 522 31,600 686 Descending FlightAware UK
Wed 12:48:33 AM 52.6539 1.5878 94° East 488 562 32,400 -2,595 Climbing FlightAware ADS-B
Wed 12:48:52 AM 52.6468 1.6467 94° East 456 525 30,000 -2,500 Descending FlightAware UK
Wed 12:49:09 AM 52.6487 1.7175 94° East 483 556 30,900 -2,229 Climbing FlightAware ADS-B
Wed 12:49:27 AM 52.6412 1.7781 94° East 456 525 28,700 -4,541 Descending FlightAware UK
Wed 12:49:46 AM 52.6383 1.8422 94° East 446 513 28,100 -1,833 Descending FlightAware UK
Wed 12:50:03 AM 52.6356 1.9050 94° East 438 504 27,600 2,609 Descending FlightAware UK
Wed 12:50:09 AM 52.6400 1.9150 94° East 463 533 29,100 -1,920 Climbing FlightAware ADS-B
Wed 12:50:28 AM 52.6319 1.9891 94° East 428 493 26,800 -4,703 Descending FlightAware UK
Wed 12:50:46 AM 52.6291 2.0505 94° East 422 486 26,200 2,077 Descending FlightAware UK
Wed 12:50:54 AM 52.6340 2.0650 94° East 449 517 27,700 -1,750 Climbing FlightAware ADS-B
Wed 12:51:10 AM 52.6253 2.1314 94° East 412 474 25,500 -5,091 Descending FlightAware UK
Wed 12:51:27 AM 52.6226 2.1905 94° East 406 467 24,900 2,000 Descending FlightAware UK
Wed 12:51:34 AM 52.6270 2.2170 94° East 435 501 26,300 -1,920 Climbing FlightAware ADS-B
Wed 12:51:52 AM 52.6188 2.2705 94° East 402 463 24,100 -4,667 Descending FlightAware UK
Wed 12:52:10 AM 52.6159 2.3291 95° East 400 460 23,500 2,455 Descending FlightAware UK
Wed 12:52:14 AM 52.6210 2.3500 95° East 427 491 25,000 -1,750 Climbing FlightAware ADS-B
Wed 12:52:34 AM 52.6121 2.4059 95° East 398 458 22,800 -4,421 Descending FlightAware UK
Wed 12:52:52 AM 52.6094 2.4631 94° East 394 453 22,200 2,160 Descending FlightAware UK
Wed 12:52:59 AM 52.6150 2.4810 94° East 417 480 23,700 -1,750 Climbing FlightAware ADS-B
Wed 12:53:16 AM 52.6058 2.5378 94° East 388 447 21,500 -4,800 Descending FlightAware UK
Wed 12:53:34 AM 52.6032 2.5942 94° East 384 442 20,900 1,500 Descending FlightAware UK
Wed 12:53:44 AM 52.6080 2.6280 94° East 406 467 22,200 -1,800 Climbing FlightAware ADS-B
Wed 12:54:04 AM 52.5982 2.6861 94° East 376 433 20,000 -4,263 Descending FlightAware UK
Wed 12:54:22 AM 52.5955 2.7400 95° East 374 430 19,500 3,000 Descending FlightAware UK
Wed 12:54:24 AM 52.6020 2.7500 95° East 397 457 21,000 -1,667 Climbing FlightAware ADS-B
Wed 12:54:40 AM 52.5929 2.7941 95° East 372 428 19,000 -4,412 Descending FlightAware UK
Wed 12:54:58 AM 52.5899 2.8475 95° East 366 421 18,500 2,069 Descending FlightAware UK
Wed 12:55:09 AM 52.5950 2.8840 95° East 388 447 20,000  Climbing FlightAware ADS-B
Wed 12:55:28 AM 52.5854 2.9350 95° East 374 430 18,500 -2,432 Descending FlightAware UK
Wed 12:55:46 AM 52.5823 2.9912 95° East 380 437 18,500 4,286 Level FlightAware UK
Wed 12:55:49 AM 52.5890 3.0040 95° East 402 463 20,000  Climbing FlightAware ADS-B
Wed 12:56:04 AM 52.5792 3.0456 95° East 382 440 18,500 -3,091 Descending FlightAware UK
Wed 12:56:22 AM 52.5765 3.1002 95° East 382 440 18,300 1,800 Descending FlightAware UK
Wed 12:56:34 AM 52.5820 3.1430 95° East 399 459 19,400 -2,200 Climbing FlightAware ADS-B
Wed 12:56:52 AM 52.5713 3.1921 95° East 376 433 17,200 -1,886 Descending FlightAware UK
Wed 12:57:09 AM 52.5760 3.2450 96° East 391 450 18,300 -2,000 Climbing FlightAware ADS-B
Wed 12:57:10 AM 52.5681 3.2451 96° East 374 430 16,600 -7,263 Descending FlightAware UK
Wed 12:57:28 AM 52.5651 3.2983 96° East 370 426 16,000 1,235 Descending FlightAware UK
Wed 12:57:44 AM 52.5710 3.3350 95° East 385 443 17,300 -2,000 Climbing FlightAware ADS-B
Wed 12:57:46 AM 52.5624 3.3504 95° East 366 421 15,400 -7,500 Descending FlightAware UK
Wed 12:58:04 AM 52.5596 3.4017 95° East 364 419 14,800 -1,833 Descending FlightAware UK
Wed 12:58:22 AM 52.5565 3.4532 96° East 360 414 14,300 1,200 Descending FlightAware UK
Wed 12:58:39 AM 52.5630 3.4930 96° East 373 429 15,500 -2,167 Climbing FlightAware ADS-B
Wed 12:58:58 AM 52.5504 3.5552 96° East 354 407 13,000 -5,189 Descending FlightAware UK
Wed 12:59:16 AM 52.5471 3.6051 96° East 350 403 12,300 2,857 Descending FlightAware UK
Wed 12:59:19 AM 52.5560 3.6050 96° East 364 419 14,000 -2,211 Climbing FlightAware ADS-B
Wed 12:59:35 AM 52.5445 3.6543 96° East 346 398 11,600 -5,471 Descending FlightAware UK
Wed 12:59:53 AM 52.5416 3.7034 96° East 346 398 10,900 1,241 Descending FlightAware UK
Wed 01:00:04 AM 52.5490 3.7280 96° East 352 405 12,200 -2,000 Climbing FlightAware ADS-B
Wed 01:00:23 AM 52.5368 3.7823 96° East 342 394 9,900 -4,541 Descending FlightAware UK
Wed 01:00:41 AM 52.5289 3.8257 107° East 322 371 9,400 3,429 Descending FlightAware UK
Wed 01:00:44 AM 52.5380 3.8290 107° East 321 369 11,100 -1,000 Climbing FlightAware ADS-B
Wed 01:00:59 AM 52.5199 3.8665 107° East 302 348 9,100 -4,364 Descending FlightAware UK
Wed 01:01:17 AM 52.5122 3.9048 108° East 288 331 8,700 2,640 Descending FlightAware UK
Wed 01:01:24 AM 52.5200 3.9180 108° East 288 331 10,200 3,000 Climbing FlightAware ADS-B
Wed 01:01:39 AM 52.5140 3.9480 108° East 285 328 9,800 -4,286 Descending FlightAware ADS-B
Wed 01:01:59 AM 52.4950 3.9921 108° East 1 1 7,700 -4,105 Descending FlightAware UK
Wed 01:02:17 AM 52.4875 4.0288 108° East 1 1 7,200 2,640 Descending FlightAware UK
Wed 01:02:24 AM 52.4940 4.0420 108° East 279 321 8,800 -1,250 Climbing FlightAware ADS-B
Wed 01:02:41 AM 52.4767 4.0773 108° East 1 1 6,700 -1,440 Descending FlightAware UK
Wed 01:02:49 AM 52.4840 4.0910 108° East 279 321 8,200 3,130 Climbing FlightAware ADS-B
Wed 01:03:04 AM 52.4780 4.1220 108° East 278 320 7,900 -7,125 Descending FlightAware ADS-B
Wed 01:03:05 AM 52.4663 4.1259 108° East 1 1 6,300 -6,000 Descending FlightAware UK
Wed 01:03:23 AM 52.4590 4.1622 108° East 1 1 6,000 3,000 Descending FlightAware UK
Wed 01:03:29 AM 52.4670 4.1730 108° East 274 315 7,500 3,429 Climbing FlightAware ADS-B
Wed 01:03:44 AM 52.4610 4.2020 108° East 272 313 7,200 -6,667 Descending FlightAware ADS-B
Wed 01:03:47 AM 52.4480 4.2096 108° East 1 1 5,500 -7,600 Descending FlightAware UK
Wed 01:03:59 AM 52.4427 4.2332 108° East 1 1 5,300 2,667 Descending FlightAware UK
Wed 01:04:14 AM 52.4480 4.2600 108° East 271 312 6,700 -1,200 Climbing FlightAware ADS-B
Wed 01:04:29 AM 52.4302 4.2922 108° East 1 1 4,700 -1,200 Descending FlightAware UK
Wed 01:04:29 AM 52.4430 4.2870 108° East 270 311 6,400 -1,333 Climbing FlightAware ADS-B
Wed 01:04:47 AM 52.4230 4.3273 108° East 1 1 4,300 -1,440 Descending FlightAware UK
Wed 01:04:54 AM 52.4320 4.3390 108° East 267 307 5,800 -1,250 Climbing FlightAware ADS-B
Wed 01:05:11 AM 52.4126 4.3741 108° East 1 1 3,800 -1,400 Descending FlightAware UK
Wed 01:05:24 AM 52.4210 4.3960 108° East 266 306 5,100 1,929 Climbing FlightAware ADS-B
Wed 01:05:39 AM 52.4240 4.4260 81° East 258 297 4,700 -1,680 Descending FlightAware ADS-B
Wed 01:05:49 AM 52.4310 4.4430 56° Northeast 261 300 4,400 -1,500 Descending FlightAware ADS-B
Wed 01:06:19 AM 52.4600 4.4780 36° Northeast 256 295 3,700 -1,100 Descending FlightAware ADS-B
Wed 01:06:49 AM 52.4880 4.5090 34° Northeast 238 274 3,300 -750 Descending FlightAware ADS-B
Wed 01:06:59 AM 52.4970 4.5190 34° Northeast 236 272 3,200 -750 Descending FlightAware ADS-B
Wed 01:07:29 AM 52.5260 4.5510 34° Northeast 240 276 2,800 -700 Descending FlightAware ADS-B
Wed 01:07:59 AM 52.5520 4.5810 35° Northeast 224 258 2,500 -436 Descending FlightAware ADS-B
Wed 01:08:24 AM 52.5740 4.6060 35° Northeast 214 246 2,400 -150 Descending FlightAware ADS-B
Wed 01:08:39 AM 52.5820 4.6270 58° Northeast 214 246 2,400  Level FlightAware ADS-B
Wed 01:08:49 AM 52.5830 4.6430 84° East 209 241 2,400  Level FlightAware ADS-B
Wed 01:09:19 AM 52.5810 4.6880 94° East 191 220 2,400  Level FlightAware ADS-B
Wed 01:09:34 AM 52.5730 4.7040 129° Southeast 194 223 2,400  Level FlightAware ADS-B
Wed 01:09:49 AM 52.5610 4.7140 153° Southeast 187 215 2,400  Level FlightAware ADS-B
Wed 01:10:14 AM 52.5410 4.7290 155° Southeast 182 209 2,400  Level FlightAware ADS-B
Wed 01:10:29 AM 52.5280 4.7310 175° South 191 220 2,400  Level FlightAware ADS-B
Wed 01:10:59 AM 52.5010 4.7280 184° South 181 208 2,400  Level FlightAware ADS-B
Wed 01:11:29 AM 52.4750 4.7250 184° South 181 208 2,400 -327 Level FlightAware ADS-B
Wed 01:11:54 AM 52.4530 4.7230 183° South 194 223 2,100 -873 Descending FlightAware ADS-B
Wed 01:12:24 AM 52.4260 4.7190 185° South 176 203 1,600 -982 Descending FlightAware ADS-B
Wed 01:12:49 AM 52.4080 4.7170 184° South 150 173 1,200 -900 Descending FlightAware ADS-B
Wed 01:13:04 AM 52.3970 4.7160 183° South 144 166 1,000 -800 Descending FlightAware ADS-B
Wed 01:13:34 AM 52.3800 4.7140 184° South 127 146 600 -800 Descending FlightAware ADS-B
Wed 01:13:49 AM 52.3700 4.7130 183° South 134 154 400 -300 Descending FlightAware ADS-B
Wed 01:14:14 AM 52.3540 4.7120 182° South 134 154 400  Level FlightAware ADS-B

Login

Don't have an account? Register now (free) for customized features, flight alerts, and more!